Accueil
METAR-TAF:

METAR-TAF

Aéroports :

Base aérienne

Niederstetten, Allemagne

latitude: 49-24N, longitude: 009-58E, altitude: 468 m

Observation

Le bulletin a été fait il y a 1 heure et 6 minutes, à 18:20 UTC
Vent 3 kt de est
Température 0°C
Humidité 100%
Pression 1013 hPa
Visibilité: 0200 m
brouillard

METAR: ETHN 201820Z 09003KT 0200 FG VV000 00/00 Q1013 RED

Heure: 20:26 (19:26 UTC)

Prévision

Le bulletin a été fait il y a 3 heures et 42 minutes, à 15:44 UTC
Prévision valable du 20 à 15 UTC au 20 à 24 UTC
Vent 5 kt de est/nord-est
Visibilité: 0500 m
à une hauteur de 100 ft
brouillard
Probabilité 30%
du 20 à 16 UTC au 20 à 19 UTC
Vent 5 kt de est/nord-est
Visibilité: 1600 m
Nuages épars à une hauteur de 700 ft

TAF: ETHN 201544Z 2015/2024 07005KT 0500 FG VV001 PROB30 2016/2019 07005KT 8000 NSW SCT007 CANCEL 1600

Observations et prévisions météorologiques de plus de 4000 aéroports (messages METAR et TAF).

Les stations disponibles sont représentées par des disques jaunes et rouges sur la carte.

Passer la souris dessus pour voir le nom de la station.

Cliquer dessus pour voir les observations et prévisions météorologiques.

Pour changer de carte: cliquez sur les boutons verts avec une croix noire pour zoomer, sur le bouton vert avec un tiret pour effectuer un zoom arrière, ou sur les flèches vertes pour les cartes adjacentes.


METAR-TAF: